Palmdale, CA (93590)

11:30 AM PST on February 08, 2016 (GMT -0800)
Joshua Hills | | Change Station
CLOSE
Current Station
Personal Weather Station
Location: Palmdale, CA
Elevation: 2746 ft
Nearby Weather Stations

Elev 2746 ft 34.55 °N, 118.08 °W | Updated 18 seconds ago

Clear
Clear
67.5 °F
Feels Like 67.5 °F
N
9.0
Wind Variable Wind from ENE
Gusts 20.0 mph

Today
High -- | Low -- °F
--% Chance of Precip.
Yesterday
High -- | Low -- °F
Precip. -- in
Pressure 30.35 in
Visibility 10.0 miles
Clouds Clear
Dew Point 25 °F
Humidity 20%
Rainfall 0.00 in
Snow Depth Not available.
6:44 AM 5:28 PM
New Moon, 0% visible
METAR KPMD 081853Z AUTO 09020KT 10SM CLR 19/M06 A3038 RMK AO2 SLP276 T01941056
Pressure 30.35 in
Visibility 10.0 miles
Clouds Clear
Dew Point 25 °F
Humidity 20%
Rainfall 0.00 in
Snow Depth Not available.
6:44 AM 5:28 PM
New Moon, 0% visible
METAR KPMD 081853Z AUTO 09020KT 10SM CLR 19/M06 A3038 RMK AO2 SLP276 T01941056

10-Day Weather Forecast

Almanac

Astronomy

Feb. 08, 2016 Rise Set
Actual Time
Civil Twilight
Nautical Twilight
Astronomical Twilight
Moon
Length of Visible Light
Length of Day
Tomorrow will be .
, % of the Moon is Illuminated

Today's Extremes

State Highs State Lows

Community

WunderPhotos

Upload Photos

1,891,499 photos uploaded!

WunderBlog® & News

Nearby

Air Quality

  Air Quality AQ Index Pollutant
Not available.

Snow Depth

Station Depth Elevation

Earthquake Activity

City Distance Mag. Time & Date
Minimum magnitude displayed is 2.5.

Coastal Water Temperatures

Place Temperature

Stations

Nearby Weather Stations

Station Location Temp. Windchill Dew Point Humidity Wind Precip. Elev Updated Type
                   

Watches & Warnings

There are currently no watches in effect.